sensor_id;sensor_type;location;lat;lon;timestamp;P1;durP1;ratioP1;P2;durP2;ratioP2
60211;SDS011;46079;48.686;15.598;2023-03-01T00:01:00;9.75;;;4.43;;
60211;SDS011;46079;48.686;15.598;2023-03-01T00:03:28;11.02;;;4.57;;
60211;SDS011;46079;48.686;15.598;2023-03-01T00:05:54;10.65;;;4.55;;
60211;SDS011;46079;48.686;15.598;2023-03-01T00:08:19;10.20;;;4.40;;
60211;SDS011;46079;48.686;15.598;2023-03-01T00:10:44;11.18;;;5.03;;
60211;SDS011;46079;48.686;15.598;2023-03-01T00:13:10;9.38;;;4.45;;
60211;SDS011;46079;48.686;15.598;2023-03-01T00:15:37;9.93;;;4.50;;
60211;SDS011;46079;48.686;15.598;2023-03-01T00:18:04;10.18;;;4.38;;
60211;SDS011;46079;48.686;15.598;2023-03-01T00:20:30;9.93;;;4.40;;
60211;SDS011;46079;48.686;15.598;2023-03-01T00:22:55;9.80;;;4.40;;
60211;SDS011;46079;48.686;15.598;2023-03-01T00:25:21;10.13;;;4.53;;
60211;SDS011;46079;48.686;15.598;2023-03-01T00:27:46;9.30;;;4.18;;
60211;SDS011;46079;48.686;15.598;2023-03-01T00:30:14;11.55;;;5.00;;
60211;SDS011;46079;48.686;15.598;2023-03-01T00:32:40;9.95;;;4.63;;
60211;SDS011;46079;48.686;15.598;2023-03-01T00:35:05;10.63;;;4.57;;
60211;SDS011;46079;48.686;15.598;2023-03-01T00:37:31;10.13;;;4.65;;
60211;SDS011;46079;48.686;15.598;2023-03-01T00:39:56;11.30;;;4.50;;
60211;SDS011;46079;48.686;15.598;2023-03-01T00:42:21;10.45;;;4.63;;
60211;SDS011;46079;48.686;15.598;2023-03-01T00:44:47;10.82;;;4.80;;
60211;SDS011;46079;48.686;15.598;2023-03-01T00:47:13;11.88;;;4.70;;
60211;SDS011;46079;48.686;15.598;2023-03-01T00:49:39;11.02;;;4.60;;
60211;SDS011;46079;48.686;15.598;2023-03-01T00:52:04;11.43;;;4.88;;
60211;SDS011;46079;48.686;15.598;2023-03-01T00:54:30;10.02;;;4.53;;
60211;SDS011;46079;48.686;15.598;2023-03-01T00:56:56;10.00;;;4.70;;
60211;SDS011;46079;48.686;15.598;2023-03-01T00:59:21;9.95;;;4.47;;
60211;SDS011;46079;48.686;15.598;2023-03-01T01:01:46;10.45;;;4.47;;
60211;SDS011;46079;48.686;15.598;2023-03-01T01:04:12;10.32;;;4.38;;
60211;SDS011;46079;48.686;15.598;2023-03-01T01:06:42;9.98;;;4.60;;
60211;SDS011;46079;48.686;15.598;2023-03-01T01:09:10;9.85;;;4.45;;
60211;SDS011;46079;48.686;15.598;2023-03-01T01:11:47;10.20;;;4.47;;
60211;SDS011;46079;48.686;15.598;2023-03-01T01:16:40;11.68;;;4.78;;
60211;SDS011;46079;48.686;15.598;2023-03-01T01:19:06;9.02;;;4.20;;
60211;SDS011;46079;48.686;15.598;2023-03-01T01:21:34;11.48;;;4.70;;
60211;SDS011;46079;48.686;15.598;2023-03-01T01:24:02;9.55;;;4.65;;
60211;SDS011;46079;48.686;15.598;2023-03-01T01:26:29;9.95;;;4.50;;
60211;SDS011;46079;48.686;15.598;2023-03-01T01:28:56;9.68;;;4.68;;
60211;SDS011;46079;48.686;15.598;2023-03-01T01:31:23;10.80;;;4.45;;
60211;SDS011;46079;48.686;15.598;2023-03-01T01:33:50;10.85;;;4.72;;
60211;SDS011;46079;48.686;15.598;2023-03-01T01:36:16;10.85;;;4.30;;
60211;SDS011;46079;48.686;15.598;2023-03-01T01:38:42;9.88;;;4.30;;
60211;SDS011;46079;48.686;15.598;2023-03-01T01:41:08;10.13;;;4.63;;
60211;SDS011;46079;48.686;15.598;2023-03-01T01:44:23;11.15;;;4.82;;
60211;SDS011;46079;48.686;15.598;2023-03-01T01:46:41;9.88;;;4.38;;
60211;SDS011;46079;48.686;15.598;2023-03-01T01:49:29;9.65;;;4.38;;
60211;SDS011;46079;48.686;15.598;2023-03-01T01:54:37;11.65;;;5.25;;
60211;SDS011;46079;48.686;15.598;2023-03-01T01:57:07;10.90;;;5.05;;
60211;SDS011;46079;48.686;15.598;2023-03-01T01:59:39;9.85;;;4.60;;
60211;SDS011;46079;48.686;15.598;2023-03-01T02:02:08;10.02;;;4.72;;
60211;SDS011;46079;48.686;15.598;2023-03-01T02:04:33;12.02;;;4.85;;
60211;SDS011;46079;48.686;15.598;2023-03-01T02:07:07;10.95;;;5.18;;
60211;SDS011;46079;48.686;15.598;2023-03-01T02:09:39;9.35;;;4.30;;
60211;SDS011;46079;48.686;15.598;2023-03-01T02:12:06;11.07;;;5.07;;
60211;SDS011;46079;48.686;15.598;2023-03-01T02:14:32;9.70;;;4.70;;
60211;SDS011;46079;48.686;15.598;2023-03-01T02:16:57;10.68;;;4.32;;
60211;SDS011;46079;48.686;15.598;2023-03-01T02:19:36;11.07;;;4.70;;
60211;SDS011;46079;48.686;15.598;2023-03-01T02:27:49;9.60;;;4.05;;
60211;SDS011;46079;48.686;15.598;2023-03-01T02:30:36;10.50;;;4.68;;
60211;SDS011;46079;48.686;15.598;2023-03-01T02:33:02;10.35;;;4.63;;
60211;SDS011;46079;48.686;15.598;2023-03-01T02:35:29;10.88;;;4.80;;
60211;SDS011;46079;48.686;15.598;2023-03-01T02:37:59;8.93;;;4.20;;
60211;SDS011;46079;48.686;15.598;2023-03-01T02:40:27;10.32;;;4.10;;
60211;SDS011;46079;48.686;15.598;2023-03-01T02:42:55;10.18;;;4.57;;
60211;SDS011;46079;48.686;15.598;2023-03-01T02:45:22;9.80;;;4.32;;
60211;SDS011;46079;48.686;15.598;2023-03-01T02:47:48;9.70;;;4.45;;
60211;SDS011;46079;48.686;15.598;2023-03-01T02:53:08;9.93;;;4.40;;
60211;SDS011;46079;48.686;15.598;2023-03-01T02:55:39;10.00;;;4.60;;
60211;SDS011;46079;48.686;15.598;2023-03-01T02:58:05;9.98;;;3.90;;
60211;SDS011;46079;48.686;15.598;2023-03-01T03:00:33;10.77;;;4.63;;
60211;SDS011;46079;48.686;15.598;2023-03-01T03:03:05;9.35;;;4.53;;
60211;SDS011;46079;48.686;15.598;2023-03-01T03:05:32;9.65;;;4.57;;
60211;SDS011;46079;48.686;15.598;2023-03-01T03:07:59;10.35;;;4.60;;
60211;SDS011;46079;48.686;15.598;2023-03-01T03:10:33;10.98;;;4.63;;
60211;SDS011;46079;48.686;15.598;2023-03-01T03:13:01;10.20;;;4.20;;
60211;SDS011;46079;48.686;15.598;2023-03-01T03:15:29;9.73;;;4.70;;
60211;SDS011;46079;48.686;15.598;2023-03-01T03:17:56;10.73;;;4.65;;
60211;SDS011;46079;48.686;15.598;2023-03-01T03:20:23;10.40;;;4.70;;
60211;SDS011;46079;48.686;15.598;2023-03-01T03:22:51;9.95;;;4.43;;
60211;SDS011;46079;48.686;15.598;2023-03-01T03:25:18;9.85;;;4.40;;
60211;SDS011;46079;48.686;15.598;2023-03-01T03:27:45;9.80;;;4.28;;
60211;SDS011;46079;48.686;15.598;2023-03-01T03:30:14;9.70;;;4.57;;
60211;SDS011;46079;48.686;15.598;2023-03-01T03:32:44;9.48;;;4.38;;
60211;SDS011;46079;48.686;15.598;2023-03-01T03:35:22;11.68;;;4.65;;
60211;SDS011;46079;48.686;15.598;2023-03-01T03:37:50;10.25;;;4.45;;
60211;SDS011;46079;48.686;15.598;2023-03-01T03:40:36;10.73;;;4.55;;
60211;SDS011;46079;48.686;15.598;2023-03-01T03:43:03;10.15;;;4.20;;
60211;SDS011;46079;48.686;15.598;2023-03-01T03:45:30;10.25;;;4.68;;
60211;SDS011;46079;48.686;15.598;2023-03-01T03:47:58;9.60;;;4.40;;
60211;SDS011;46079;48.686;15.598;2023-03-01T03:50:24;9.80;;;4.25;;
60211;SDS011;46079;48.686;15.598;2023-03-01T03:52:49;9.80;;;4.50;;
60211;SDS011;46079;48.686;15.598;2023-03-01T03:55:15;10.05;;;4.75;;
60211;SDS011;46079;48.686;15.598;2023-03-01T03:57:44;10.48;;;4.50;;
60211;SDS011;46079;48.686;15.598;2023-03-01T04:00:16;9.80;;;4.35;;
60211;SDS011;46079;48.686;15.598;2023-03-01T04:02:43;10.88;;;4.78;;
60211;SDS011;46079;48.686;15.598;2023-03-01T04:05:11;9.68;;;4.30;;
60211;SDS011;46079;48.686;15.598;2023-03-01T04:07:39;10.20;;;4.35;;
60211;SDS011;46079;48.686;15.598;2023-03-01T04:10:06;11.13;;;4.70;;
60211;SDS011;46079;48.686;15.598;2023-03-01T04:12:33;11.30;;;4.47;;
60211;SDS011;46079;48.686;15.598;2023-03-01T04:15:00;9.93;;;4.40;;
60211;SDS011;46079;48.686;15.598;2023-03-01T04:17:26;10.10;;;4.47;;
60211;SDS011;46079;48.686;15.598;2023-03-01T04:19:52;10.85;;;5.07;;
60211;SDS011;46079;48.686;15.598;2023-03-01T04:22:18;9.60;;;3.92;;
60211;SDS011;46079;48.686;15.598;2023-03-01T04:24:44;10.98;;;4.40;;
60211;SDS011;46079;48.686;15.598;2023-03-01T04:27:10;9.90;;;4.50;;
60211;SDS011;46079;48.686;15.598;2023-03-01T04:29:36;9.60;;;4.18;;
60211;SDS011;46079;48.686;15.598;2023-03-01T04:32:01;10.52;;;4.50;;
60211;SDS011;46079;48.686;15.598;2023-03-01T04:34:28;9.75;;;4.50;;
60211;SDS011;46079;48.686;15.598;2023-03-01T04:36:53;10.25;;;4.30;;
60211;SDS011;46079;48.686;15.598;2023-03-01T04:39:19;10.40;;;4.90;;
60211;SDS011;46079;48.686;15.598;2023-03-01T04:41:45;10.13;;;4.68;;
60211;SDS011;46079;48.686;15.598;2023-03-01T04:44:10;10.00;;;4.40;;
60211;SDS011;46079;48.686;15.598;2023-03-01T04:46:35;10.85;;;4.68;;
60211;SDS011;46079;48.686;15.598;2023-03-01T04:49:01;9.60;;;4.30;;
60211;SDS011;46079;48.686;15.598;2023-03-01T04:51:27;9.65;;;4.53;;
60211;SDS011;46079;48.686;15.598;2023-03-01T04:53:53;8.98;;;4.05;;
60211;SDS011;46079;48.686;15.598;2023-03-01T04:56:19;11.60;;;5.00;;
60211;SDS011;46079;48.686;15.598;2023-03-01T04:58:45;9.90;;;4.45;;
60211;SDS011;46079;48.686;15.598;2023-03-01T05:01:12;10.10;;;4.65;;
60211;SDS011;46079;48.686;15.598;2023-03-01T05:03:49;9.98;;;4.55;;
60211;SDS011;46079;48.686;15.598;2023-03-01T05:06:16;9.18;;;4.07;;
60211;SDS011;46079;48.686;15.598;2023-03-01T05:08:43;10.35;;;4.80;;
60211;SDS011;46079;48.686;15.598;2023-03-01T05:11:09;10.68;;;4.68;;
60211;SDS011;46079;48.686;15.598;2023-03-01T05:13:36;10.13;;;4.68;;
60211;SDS011;46079;48.686;15.598;2023-03-01T05:16:04;10.52;;;4.63;;
60211;SDS011;46079;48.686;15.598;2023-03-01T05:18:32;9.65;;;4.28;;
60211;SDS011;46079;48.686;15.598;2023-03-01T05:21:02;11.25;;;4.45;;
60211;SDS011;46079;48.686;15.598;2023-03-01T05:23:30;10.80;;;4.40;;
60211;SDS011;46079;48.686;15.598;2023-03-01T05:26:00;10.23;;;4.40;;
60211;SDS011;46079;48.686;15.598;2023-03-01T05:28:27;11.57;;;4.50;;
60211;SDS011;46079;48.686;15.598;2023-03-01T05:30:53;10.35;;;4.43;;
60211;SDS011;46079;48.686;15.598;2023-03-01T05:33:19;10.60;;;4.28;;
60211;SDS011;46079;48.686;15.598;2023-03-01T05:35:47;14.43;;;4.88;;
60211;SDS011;46079;48.686;15.598;2023-03-01T05:38:13;10.55;;;4.65;;
60211;SDS011;46079;48.686;15.598;2023-03-01T05:40:40;9.43;;;4.80;;
60211;SDS011;46079;48.686;15.598;2023-03-01T05:43:10;9.32;;;3.95;;
60211;SDS011;46079;48.686;15.598;2023-03-01T05:45:37;10.38;;;4.53;;
60211;SDS011;46079;48.686;15.598;2023-03-01T05:48:03;10.15;;;4.43;;
60211;SDS011;46079;48.686;15.598;2023-03-01T05:50:32;10.07;;;4.47;;
60211;SDS011;46079;48.686;15.598;2023-03-01T05:53:00;10.02;;;4.38;;
60211;SDS011;46079;48.686;15.598;2023-03-01T05:55:27;10.70;;;4.60;;
60211;SDS011;46079;48.686;15.598;2023-03-01T05:57:54;10.15;;;4.57;;
60211;SDS011;46079;48.686;15.598;2023-03-01T06:00:20;10.75;;;5.15;;
60211;SDS011;46079;48.686;15.598;2023-03-01T06:02:49;9.95;;;4.82;;
60211;SDS011;46079;48.686;15.598;2023-03-01T06:05:17;10.88;;;4.90;;
60211;SDS011;46079;48.686;15.598;2023-03-01T06:07:43;11.10;;;5.20;;
60211;SDS011;46079;48.686;15.598;2023-03-01T06:10:09;11.15;;;5.05;;
60211;SDS011;46079;48.686;15.598;2023-03-01T06:12:36;11.07;;;5.07;;
60211;SDS011;46079;48.686;15.598;2023-03-01T06:15:04;11.13;;;5.72;;
60211;SDS011;46079;48.686;15.598;2023-03-01T06:17:31;10.73;;;5.18;;
60211;SDS011;46079;48.686;15.598;2023-03-01T06:19:57;10.80;;;5.22;;
60211;SDS011;46079;48.686;15.598;2023-03-01T06:22:23;10.50;;;5.20;;
60211;SDS011;46079;48.686;15.598;2023-03-01T06:24:49;10.93;;;5.35;;
60211;SDS011;46079;48.686;15.598;2023-03-01T06:27:15;11.27;;;5.35;;
60211;SDS011;46079;48.686;15.598;2023-03-01T06:29:40;10.65;;;5.28;;
60211;SDS011;46079;48.686;15.598;2023-03-01T06:32:06;10.10;;;5.07;;
60211;SDS011;46079;48.686;15.598;2023-03-01T06:34:33;10.70;;;5.10;;
60211;SDS011;46079;48.686;15.598;2023-03-01T06:36:58;10.38;;;5.03;;
60211;SDS011;46079;48.686;15.598;2023-03-01T06:39:24;11.20;;;5.10;;
60211;SDS011;46079;48.686;15.598;2023-03-01T06:41:49;11.70;;;5.38;;
60211;SDS011;46079;48.686;15.598;2023-03-01T06:44:15;10.57;;;5.40;;
60211;SDS011;46079;48.686;15.598;2023-03-01T06:46:40;10.70;;;5.00;;
60211;SDS011;46079;48.686;15.598;2023-03-01T06:49:06;11.50;;;5.30;;
60211;SDS011;46079;48.686;15.598;2023-03-01T06:51:35;10.68;;;5.72;;
60211;SDS011;46079;48.686;15.598;2023-03-01T06:54:02;11.13;;;5.32;;
60211;SDS011;46079;48.686;15.598;2023-03-01T06:56:29;10.10;;;4.68;;
60211;SDS011;46079;48.686;15.598;2023-03-01T06:58:55;10.95;;;5.43;;
60211;SDS011;46079;48.686;15.598;2023-03-01T07:01:21;11.15;;;5.55;;
60211;SDS011;46079;48.686;15.598;2023-03-01T07:03:46;11.55;;;5.50;;
60211;SDS011;46079;48.686;15.598;2023-03-01T07:06:11;10.32;;;4.95;;
60211;SDS011;46079;48.686;15.598;2023-03-01T07:08:37;11.07;;;5.50;;
60211;SDS011;46079;48.686;15.598;2023-03-01T07:11:02;11.07;;;5.35;;
60211;SDS011;46079;48.686;15.598;2023-03-01T07:13:29;10.90;;;5.38;;
60211;SDS011;46079;48.686;15.598;2023-03-01T07:15:55;10.77;;;5.40;;
60211;SDS011;46079;48.686;15.598;2023-03-01T07:18:20;10.68;;;5.20;;
60211;SDS011;46079;48.686;15.598;2023-03-01T07:20:46;10.77;;;5.07;;
60211;SDS011;46079;48.686;15.598;2023-03-01T07:23:11;11.70;;;4.95;;
60211;SDS011;46079;48.686;15.598;2023-03-01T07:25:37;12.75;;;5.25;;
60211;SDS011;46079;48.686;15.598;2023-03-01T07:28:02;10.55;;;5.30;;
60211;SDS011;46079;48.686;15.598;2023-03-01T07:30:28;12.40;;;5.20;;
60211;SDS011;46079;48.686;15.598;2023-03-01T07:32:54;13.25;;;6.00;;
60211;SDS011;46079;48.686;15.598;2023-03-01T07:35:20;11.05;;;5.50;;
60211;SDS011;46079;48.686;15.598;2023-03-01T07:37:47;10.93;;;5.38;;
60211;SDS011;46079;48.686;15.598;2023-03-01T07:40:12;12.77;;;5.13;;
60211;SDS011;46079;48.686;15.598;2023-03-01T07:42:38;12.38;;;5.40;;
60211;SDS011;46079;48.686;15.598;2023-03-01T07:45:06;11.98;;;5.32;;
60211;SDS011;46079;48.686;15.598;2023-03-01T07:47:32;11.13;;;5.45;;
60211;SDS011;46079;48.686;15.598;2023-03-01T07:49:58;12.35;;;6.18;;
60211;SDS011;46079;48.686;15.598;2023-03-01T07:52:23;11.85;;;5.38;;
60211;SDS011;46079;48.686;15.598;2023-03-01T07:54:49;12.70;;;5.78;;
60211;SDS011;46079;48.686;15.598;2023-03-01T07:57:14;13.70;;;5.18;;
60211;SDS011;46079;48.686;15.598;2023-03-01T07:59:40;12.63;;;6.00;;
60211;SDS011;46079;48.686;15.598;2023-03-01T08:02:05;11.25;;;5.43;;
60211;SDS011;46079;48.686;15.598;2023-03-01T08:04:32;12.45;;;5.82;;
60211;SDS011;46079;48.686;15.598;2023-03-01T08:06:58;12.23;;;5.53;;
60211;SDS011;46079;48.686;15.598;2023-03-01T08:09:23;11.30;;;5.68;;
60211;SDS011;46079;48.686;15.598;2023-03-01T08:11:49;11.98;;;5.63;;
60211;SDS011;46079;48.686;15.598;2023-03-01T08:14:14;12.18;;;5.32;;
60211;SDS011;46079;48.686;15.598;2023-03-01T08:16:40;12.48;;;5.63;;
60211;SDS011;46079;48.686;15.598;2023-03-01T08:19:05;10.85;;;5.20;;
60211;SDS011;46079;48.686;15.598;2023-03-01T08:21:32;12.38;;;6.13;;
60211;SDS011;46079;48.686;15.598;2023-03-01T08:23:59;11.80;;;5.80;;
60211;SDS011;46079;48.686;15.598;2023-03-01T08:26:29;12.60;;;5.90;;
60211;SDS011;46079;48.686;15.598;2023-03-01T08:28:54;11.57;;;5.25;;
60211;SDS011;46079;48.686;15.598;2023-03-01T08:33:46;13.32;;;5.90;;
60211;SDS011;46079;48.686;15.598;2023-03-01T08:36:20;11.93;;;6.00;;
60211;SDS011;46079;48.686;15.598;2023-03-01T08:38:46;11.00;;;5.28;;
60211;SDS011;46079;48.686;15.598;2023-03-01T08:41:12;11.60;;;5.70;;
60211;SDS011;46079;48.686;15.598;2023-03-01T08:43:37;12.70;;;5.75;;
60211;SDS011;46079;48.686;15.598;2023-03-01T08:46:03;11.85;;;5.60;;
60211;SDS011;46079;48.686;15.598;2023-03-01T08:48:28;11.13;;;5.28;;
60211;SDS011;46079;48.686;15.598;2023-03-01T08:50:54;12.55;;;5.65;;
60211;SDS011;46079;48.686;15.598;2023-03-01T08:53:29;12.57;;;5.97;;
60211;SDS011;46079;48.686;15.598;2023-03-01T08:55:55;12.23;;;5.90;;
60211;SDS011;46079;48.686;15.598;2023-03-01T08:58:25;12.55;;;5.85;;
60211;SDS011;46079;48.686;15.598;2023-03-01T09:00:50;12.68;;;6.32;;
60211;SDS011;46079;48.686;15.598;2023-03-01T09:03:15;11.68;;;5.63;;
60211;SDS011;46079;48.686;15.598;2023-03-01T09:05:41;11.60;;;5.68;;
60211;SDS011;46079;48.686;15.598;2023-03-01T09:08:06;12.00;;;5.68;;
60211;SDS011;46079;48.686;15.598;2023-03-01T09:10:33;11.85;;;6.20;;
60211;SDS011;46079;48.686;15.598;2023-03-01T09:13:02;10.65;;;5.43;;
60211;SDS011;46079;48.686;15.598;2023-03-01T09:15:28;11.52;;;5.75;;
60211;SDS011;46079;48.686;15.598;2023-03-01T09:17:56;11.65;;;5.57;;
60211;SDS011;46079;48.686;15.598;2023-03-01T09:20:21;12.13;;;5.90;;
60211;SDS011;46079;48.686;15.598;2023-03-01T09:22:47;11.88;;;6.00;;
60211;SDS011;46079;48.686;15.598;2023-03-01T09:25:12;12.50;;;5.65;;
60211;SDS011;46079;48.686;15.598;2023-03-01T09:27:37;11.85;;;6.00;;
60211;SDS011;46079;48.686;15.598;2023-03-01T09:30:03;13.05;;;6.07;;
60211;SDS011;46079;48.686;15.598;2023-03-01T09:32:30;11.55;;;5.68;;
60211;SDS011;46079;48.686;15.598;2023-03-01T09:34:56;11.85;;;5.75;;
60211;SDS011;46079;48.686;15.598;2023-03-01T09:37:34;13.43;;;5.80;;
60211;SDS011;46079;48.686;15.598;2023-03-01T09:40:01;11.07;;;5.25;;
60211;SDS011;46079;48.686;15.598;2023-03-01T09:42:28;11.82;;;5.50;;
60211;SDS011;46079;48.686;15.598;2023-03-01T09:45:02;10.65;;;5.72;;
60211;SDS011;46079;48.686;15.598;2023-03-01T09:47:33;12.50;;;5.85;;
60211;SDS011;46079;48.686;15.598;2023-03-01T09:50:17;11.88;;;5.50;;
60211;SDS011;46079;48.686;15.598;2023-03-01T09:55:26;12.40;;;5.68;;
60211;SDS011;46079;48.686;15.598;2023-03-01T10:01:23;14.32;;;5.80;;
60211;SDS011;46079;48.686;15.598;2023-03-01T10:06:51;12.23;;;5.72;;
60211;SDS011;46079;48.686;15.598;2023-03-01T10:09:33;11.27;;;5.60;;
60211;SDS011;46079;48.686;15.598;2023-03-01T10:12:00;10.90;;;5.40;;
60211;SDS011;46079;48.686;15.598;2023-03-01T10:17:04;11.93;;;5.63;;
60211;SDS011;46079;48.686;15.598;2023-03-01T10:19:39;12.65;;;5.55;;
60211;SDS011;46079;48.686;15.598;2023-03-01T10:22:13;10.52;;;5.47;;
60211;SDS011;46079;48.686;15.598;2023-03-01T10:24:43;11.70;;;5.65;;
60211;SDS011;46079;48.686;15.598;2023-03-01T10:27:19;10.80;;;5.13;;
60211;SDS011;46079;48.686;15.598;2023-03-01T10:32:14;12.68;;;5.68;;
60211;SDS011;46079;48.686;15.598;2023-03-01T10:34:39;12.05;;;5.75;;
60211;SDS011;46079;48.686;15.598;2023-03-01T10:37:09;11.30;;;5.78;;
60211;SDS011;46079;48.686;15.598;2023-03-01T10:39:35;11.50;;;5.53;;
60211;SDS011;46079;48.686;15.598;2023-03-01T10:42:01;11.35;;;5.47;;
60211;SDS011;46079;48.686;15.598;2023-03-01T10:44:43;11.50;;;5.90;;
60211;SDS011;46079;48.686;15.598;2023-03-01T10:47:23;11.63;;;5.95;;
60211;SDS011;46079;48.686;15.598;2023-03-01T10:49:55;11.38;;;5.53;;
60211;SDS011;46079;48.686;15.598;2023-03-01T10:52:30;11.95;;;6.20;;
60211;SDS011;46079;48.686;15.598;2023-03-01T10:57:40;11.98;;;5.80;;
60211;SDS011;46079;48.686;15.598;2023-03-01T11:02:48;10.88;;;5.50;;
60211;SDS011;46079;48.686;15.598;2023-03-01T11:05:33;11.77;;;5.70;;
60211;SDS011;46079;48.686;15.598;2023-03-01T11:07:59;11.80;;;5.90;;
60211;SDS011;46079;48.686;15.598;2023-03-01T11:10:32;11.73;;;5.82;;
60211;SDS011;46079;48.686;15.598;2023-03-01T11:13:19;12.20;;;6.30;;
60211;SDS011;46079;48.686;15.598;2023-03-01T11:16:07;11.65;;;5.85;;
60211;SDS011;46079;48.686;15.598;2023-03-01T11:18:36;11.60;;;5.80;;
60211;SDS011;46079;48.686;15.598;2023-03-01T11:21:03;10.75;;;5.65;;
60211;SDS011;46079;48.686;15.598;2023-03-01T11:23:29;12.73;;;5.93;;
60211;SDS011;46079;48.686;15.598;2023-03-01T11:25:56;13.30;;;6.53;;
60211;SDS011;46079;48.686;15.598;2023-03-01T11:28:24;12.40;;;6.45;;
60211;SDS011;46079;48.686;15.598;2023-03-01T11:31:00;12.52;;;6.65;;
60211;SDS011;46079;48.686;15.598;2023-03-01T11:33:34;12.40;;;6.28;;
60211;SDS011;46079;48.686;15.598;2023-03-01T11:38:28;12.07;;;5.88;;
60211;SDS011;46079;48.686;15.598;2023-03-01T11:40:59;12.32;;;6.05;;
60211;SDS011;46079;48.686;15.598;2023-03-01T11:48:57;11.60;;;6.10;;
60211;SDS011;46079;48.686;15.598;2023-03-01T11:51:42;11.00;;;5.55;;
60211;SDS011;46079;48.686;15.598;2023-03-01T11:57:18;11.98;;;5.97;;
60211;SDS011;46079;48.686;15.598;2023-03-01T12:06:19;11.65;;;6.18;;
60211;SDS011;46079;48.686;15.598;2023-03-01T12:14:45;13.13;;;6.57;;
60211;SDS011;46079;48.686;15.598;2023-03-01T12:26:09;13.20;;;6.82;;
60211;SDS011;46079;48.686;15.598;2023-03-01T12:28:52;14.07;;;7.60;;
60211;SDS011;46079;48.686;15.598;2023-03-01T12:31:39;14.20;;;7.20;;
60211;SDS011;46079;48.686;15.598;2023-03-01T12:51:10;14.40;;;8.30;;
60211;SDS011;46079;48.686;15.598;2023-03-01T12:53:48;15.53;;;9.13;;
60211;SDS011;46079;48.686;15.598;2023-03-01T12:56:20;13.98;;;8.77;;
60211;SDS011;46079;48.686;15.598;2023-03-01T13:12:46;17.02;;;10.63;;
60211;SDS011;46079;48.686;15.598;2023-03-01T13:17:49;15.95;;;10.02;;
60211;SDS011;46079;48.686;15.598;2023-03-01T13:20:17;17.23;;;10.80;;
60211;SDS011;46079;48.686;15.598;2023-03-01T13:22:46;19.30;;;11.27;;
60211;SDS011;46079;48.686;15.598;2023-03-01T13:25:18;19.85;;;12.00;;
60211;SDS011;46079;48.686;15.598;2023-03-01T13:27:45;19.90;;;10.68;;
60211;SDS011;46079;48.686;15.598;2023-03-01T13:33:32;21.50;;;11.27;;
60211;SDS011;46079;48.686;15.598;2023-03-01T13:36:05;24.20;;;10.85;;
60211;SDS011;46079;48.686;15.598;2023-03-01T13:38:46;23.65;;;12.18;;
60211;SDS011;46079;48.686;15.598;2023-03-01T13:49:34;22.67;;;11.57;;
60211;SDS011;46079;48.686;15.598;2023-03-01T13:52:13;23.02;;;11.80;;
60211;SDS011;46079;48.686;15.598;2023-03-01T13:54:45;27.27;;;12.32;;
60211;SDS011;46079;48.686;15.598;2023-03-01T13:57:12;21.92;;;11.32;;
60211;SDS011;46079;48.686;15.598;2023-03-01T13:59:47;21.48;;;11.48;;
60211;SDS011;46079;48.686;15.598;2023-03-01T14:02:13;23.13;;;11.18;;
60211;SDS011;46079;48.686;15.598;2023-03-01T14:04:38;21.70;;;11.13;;
60211;SDS011;46079;48.686;15.598;2023-03-01T14:07:12;21.98;;;11.32;;
60211;SDS011;46079;48.686;15.598;2023-03-01T14:09:43;23.80;;;11.10;;
60211;SDS011;46079;48.686;15.598;2023-03-01T14:20:22;20.30;;;10.68;;
60211;SDS011;46079;48.686;15.598;2023-03-01T14:22:48;24.83;;;11.50;;
60211;SDS011;46079;48.686;15.598;2023-03-01T14:25:24;22.52;;;10.68;;
60211;SDS011;46079;48.686;15.598;2023-03-01T14:31:02;22.80;;;10.93;;
60211;SDS011;46079;48.686;15.598;2023-03-01T14:35:55;21.58;;;10.65;;
60211;SDS011;46079;48.686;15.598;2023-03-01T14:38:22;20.63;;;10.23;;
60211;SDS011;46079;48.686;15.598;2023-03-01T14:40:54;24.75;;;10.68;;
60211;SDS011;46079;48.686;15.598;2023-03-01T14:43:23;17.50;;;9.95;;
60211;SDS011;46079;48.686;15.598;2023-03-01T14:45:53;23.83;;;10.90;;
60211;SDS011;46079;48.686;15.598;2023-03-01T14:48:21;23.15;;;10.50;;
60211;SDS011;46079;48.686;15.598;2023-03-01T14:50:48;23.50;;;10.57;;
60211;SDS011;46079;48.686;15.598;2023-03-01T14:53:21;19.27;;;9.57;;
60211;SDS011;46079;48.686;15.598;2023-03-01T14:55:52;20.65;;;9.85;;
60211;SDS011;46079;48.686;15.598;2023-03-01T14:58:20;20.98;;;9.77;;
60211;SDS011;46079;48.686;15.598;2023-03-01T15:03:30;19.83;;;9.88;;
60211;SDS011;46079;48.686;15.598;2023-03-01T15:06:03;20.08;;;9.55;;
60211;SDS011;46079;48.686;15.598;2023-03-01T15:08:31;23.27;;;10.70;;
60211;SDS011;46079;48.686;15.598;2023-03-01T15:11:32;17.85;;;8.93;;
60211;SDS011;46079;48.686;15.598;2023-03-01T15:13:55;18.80;;;10.07;;
60211;SDS011;46079;48.686;15.598;2023-03-01T15:16:22;20.27;;;9.85;;
60211;SDS011;46079;48.686;15.598;2023-03-01T15:18:56;19.77;;;9.75;;
60211;SDS011;46079;48.686;15.598;2023-03-01T15:21:34;20.83;;;10.05;;
60211;SDS011;46079;48.686;15.598;2023-03-01T15:24:05;19.65;;;9.60;;
60211;SDS011;46079;48.686;15.598;2023-03-01T15:26:45;21.55;;;9.95;;
60211;SDS011;46079;48.686;15.598;2023-03-01T15:29:19;20.40;;;8.95;;
60211;SDS011;46079;48.686;15.598;2023-03-01T15:34:24;17.95;;;8.85;;
60211;SDS011;46079;48.686;15.598;2023-03-01T15:36:53;17.38;;;8.77;;
60211;SDS011;46079;48.686;15.598;2023-03-01T15:39:36;17.92;;;9.00;;
60211;SDS011;46079;48.686;15.598;2023-03-01T15:42:17;18.48;;;8.70;;
60211;SDS011;46079;48.686;15.598;2023-03-01T15:47:55;15.63;;;8.02;;
60211;SDS011;46079;48.686;15.598;2023-03-01T15:50:56;17.73;;;8.45;;
60211;SDS011;46079;48.686;15.598;2023-03-01T15:53:22;17.92;;;8.70;;
60211;SDS011;46079;48.686;15.598;2023-03-01T15:55:48;19.70;;;8.55;;
60211;SDS011;46079;48.686;15.598;2023-03-01T15:58:17;19.10;;;9.00;;
60211;SDS011;46079;48.686;15.598;2023-03-01T16:00:46;14.45;;;7.97;;
60211;SDS011;46079;48.686;15.598;2023-03-01T16:03:13;18.95;;;8.45;;
60211;SDS011;46079;48.686;15.598;2023-03-01T16:05:46;18.20;;;7.57;;
60211;SDS011;46079;48.686;15.598;2023-03-01T16:08:13;18.50;;;8.15;;
60211;SDS011;46079;48.686;15.598;2023-03-01T16:10:39;24.52;;;8.35;;
60211;SDS011;46079;48.686;15.598;2023-03-01T16:13:06;16.85;;;8.00;;
60211;SDS011;46079;48.686;15.598;2023-03-01T16:15:33;17.50;;;7.80;;
60211;SDS011;46079;48.686;15.598;2023-03-01T16:18:03;19.48;;;7.93;;
60211;SDS011;46079;48.686;15.598;2023-03-01T16:20:30;16.90;;;7.65;;
60211;SDS011;46079;48.686;15.598;2023-03-01T16:22:57;17.35;;;7.32;;
60211;SDS011;46079;48.686;15.598;2023-03-01T16:25:25;18.20;;;7.82;;
60211;SDS011;46079;48.686;15.598;2023-03-01T16:27:51;16.92;;;7.80;;
60211;SDS011;46079;48.686;15.598;2023-03-01T16:30:19;17.50;;;7.35;;
60211;SDS011;46079;48.686;15.598;2023-03-01T16:32:46;17.35;;;7.63;;
60211;SDS011;46079;48.686;15.598;2023-03-01T16:35:13;14.05;;;7.22;;
60211;SDS011;46079;48.686;15.598;2023-03-01T16:37:40;16.55;;;7.65;;
60211;SDS011;46079;48.686;15.598;2023-03-01T16:40:06;16.85;;;7.85;;
60211;SDS011;46079;48.686;15.598;2023-03-01T16:42:41;14.75;;;7.35;;
60211;SDS011;46079;48.686;15.598;2023-03-01T16:45:07;16.08;;;7.80;;
60211;SDS011;46079;48.686;15.598;2023-03-01T16:47:33;15.65;;;7.60;;